Time;durP1;ratioP1;P1;durP2;ratioP2;P2;SDS_P1;SDS_P2;PMS_P1;PMS_P2;Temp;Humidity;BMP_temperature;BMP_pressure;BME280_temperature;BME280_humidity;BME280_pressure;Samples;Min_cycle;Max_cycle;Signal;HPM_P1;HPM_P2
2022/12/07 00:01:43;;;;;;;29.52;19.63;;;;;;;3.35;100.00;101698.31;4952430;28;20055;-71
2022/12/07 00:04:17;;;;;;;30.52;20.02;;;;;;;3.41;100.00;101695.78;4951387;28;20048;-71
2022/12/07 00:06:49;;;;;;;31.55;19.95;;;;;;;3.44;100.00;101698.44;4953524;28;20139;-70
2022/12/07 00:09:17;;;;;;;29.85;20.17;;;;;;;3.47;100.00;101690.63;4951670;28;20071;-70
2022/12/07 00:11:50;;;;;;;34.30;20.20;;;;;;;3.50;100.00;101692.41;4952774;28;20091;-70
2022/12/07 00:14:19;;;;;;;27.60;19.83;;;;;;;3.47;100.00;101695.84;4950624;28;20094;-70
2022/12/07 00:16:50;;;;;;;32.70;20.02;;;;;;;3.41;100.00;101701.84;4952124;28;20055;-70
2022/12/07 00:19:18;;;;;;;32.47;19.38;;;;;;;3.33;100.00;101686.97;4953325;28;20107;-70
2022/12/07 00:21:45;;;;;;;28.40;18.75;;;;;;;3.25;100.00;101686.88;4953429;28;20133;-70
2022/12/07 00:24:12;;;;;;;29.08;19.33;;;;;;;3.17;100.00;101686.75;4953145;28;20059;-70
2022/12/07 00:26:41;;;;;;;27.65;19.02;;;;;;;3.11;100.00;101689.28;4953761;28;20044;-70
2022/12/07 00:29:21;;;;;;;31.15;19.15;;;;;;;3.08;100.00;101686.63;4952553;28;20094;-71
2022/12/07 00:31:48;;;;;;;36.85;19.23;;;;;;;3.01;100.00;101684.78;4951499;28;20087;-71
2022/12/07 00:34:21;;;;;;;27.35;18.13;;;;;;;3.01;100.00;101682.19;4946412;28;20050;-71
2022/12/07 00:36:49;;;;;;;27.83;17.73;;;;;;;3.00;100.00;101677.81;4952639;28;20142;-71
2022/12/07 00:39:16;;;;;;;31.30;17.33;;;;;;;3.01;100.00;101683.06;4952659;28;20048;-71
2022/12/07 00:41:43;;;;;;;27.65;18.27;;;;;;;3.00;100.00;101680.44;4953774;28;20496;-71
2022/12/07 00:44:11;;;;;;;28.67;18.80;;;;;;;2.99;100.00;101674.38;4951595;28;20162;-71
2022/12/07 00:46:38;;;;;;;32.72;19.45;;;;;;;2.97;100.00;101681.28;4952017;28;20472;-71
2022/12/07 00:49:05;;;;;;;30.63;20.10;;;;;;;2.95;100.00;101677.75;4947931;28;20065;-70
2022/12/07 00:51:32;;;;;;;29.88;18.85;;;;;;;2.89;100.00;101678.53;4951761;28;20047;-71
2022/12/07 00:53:59;;;;;;;30.55;18.70;;;;;;;2.89;100.00;101667.25;4951852;28;20048;-70
2022/12/07 00:56:29;;;;;;;30.73;19.48;;;;;;;2.85;100.00;101668.06;4951897;28;20163;-70
2022/12/07 00:58:59;;;;;;;31.52;19.30;;;;;;;2.84;100.00;101668.91;4952770;28;20041;-70
2022/12/07 01:01:33;;;;;;;35.53;21.38;;;;;;;2.79;100.00;101664.53;4952356;28;20096;-70
2022/12/07 01:04:01;;;;;;;30.27;20.20;;;;;;;2.79;100.00;101674.94;4953051;28;20103;-70
2022/12/07 01:06:30;;;;;;;30.63;20.00;;;;;;;2.75;100.00;101664.44;4951805;28;20259;-70
2022/12/07 01:09:00;;;;;;;31.50;19.83;;;;;;;2.71;100.00;101666.13;4952382;28;20458;-69
2022/12/07 01:11:29;;;;;;;30.30;20.27;;;;;;;2.65;100.00;101660.81;4953302;28;21214;-69
2022/12/07 01:14:00;;;;;;;30.05;20.08;;;;;;;2.59;100.00;101671.16;4952646;28;20047;-69
2022/12/07 01:16:31;;;;;;;34.58;20.77;;;;;;;2.53;100.00;101663.22;4952127;28;20043;-69
2022/12/07 01:19:00;;;;;;;36.97;21.25;;;;;;;2.50;100.00;101674.47;4950563;28;20608;-69
2022/12/07 01:21:37;;;;;;;38.65;20.70;;;;;;;2.45;100.00;101679.59;4951441;28;20115;-69
2022/12/07 01:24:10;;;;;;;33.35;20.83;;;;;;;2.42;100.00;101670.88;4950667;28;20044;-69
2022/12/07 01:26:38;;;;;;;40.25;21.80;;;;;;;2.37;100.00;101668.19;4952224;28;20059;-68
2022/12/07 01:29:06;;;;;;;38.47;22.38;;;;;;;2.32;100.00;101678.53;4952124;28;20107;-69
2022/12/07 01:31:33;;;;;;;37.00;21.40;;;;;;;2.31;100.00;101674.16;4951876;28;20087;-68
2022/12/07 01:34:02;;;;;;;38.88;21.77;;;;;;;2.29;100.00;101672.41;4951071;28;20043;-68
2022/12/07 01:36:32;;;;;;;37.00;21.25;;;;;;;2.25;100.00;101676.66;4952443;28;20462;-68
2022/12/07 01:39:05;;;;;;;35.85;21.00;;;;;;;2.25;100.00;101676.66;4950651;28;20178;-70
2022/12/07 01:41:39;;;;;;;38.28;21.73;;;;;;;2.25;100.00;101679.25;4952376;28;20524;-70
2022/12/07 01:44:15;;;;;;;34.38;20.58;;;;;;;2.22;100.00;101680.91;4949674;28;20143;-70
2022/12/07 01:46:52;;;;;;;39.40;22.00;;;;;;;2.16;100.00;101674.78;4951660;28;20047;-70
2022/12/07 01:49:43;;;;;;;37.03;22.25;;;;;;;2.13;100.00;101681.66;4950809;28;20450;-70
2022/12/07 01:52:21;;;;;;;36.22;22.05;;;;;;;2.08;100.00;101676.38;4951299;28;20143;-70
2022/12/07 01:54:57;;;;;;;40.30;22.00;;;;;;;2.04;100.00;101676.25;4951547;28;20464;-70
2022/12/07 01:57:25;;;;;;;43.67;22.02;;;;;;;1.99;100.00;101678.78;4951465;28;20044;-70
2022/12/07 01:59:56;;;;;;;38.70;22.10;;;;;;;1.96;100.00;101679.59;4951003;28;20048;-70
2022/12/07 02:02:33;;;;;;;42.92;24.08;;;;;;;1.93;100.00;101674.38;4951171;28;20065;-70
2022/12/07 02:05:04;;;;;;;37.78;22.40;;;;;;;1.91;100.00;101669.94;4952390;28;20067;-70
2022/12/07 02:07:37;;;;;;;40.35;22.58;;;;;;;1.86;100.00;101664.66;4950426;28;20394;-70
2022/12/07 02:10:14;;;;;;;35.78;21.50;;;;;;;1.82;100.00;101665.47;4952050;28;20043;-68
2022/12/07 02:12:46;;;;;;;43.38;23.92;;;;;;;1.78;100.00;101664.50;4950796;28;20249;-70
2022/12/07 02:15:13;;;;;;;37.95;21.83;;;;;;;1.74;100.00;101665.31;4949569;28;20036;-70
2022/12/07 02:18:11;;;;;;;42.30;23.95;;;;;;;1.71;100.00;101665.25;4949802;28;20048;-71
2022/12/07 02:20:55;;;;;;;44.28;22.90;;;;;;;1.67;100.00;101661.72;4946627;28;20156;-70
2022/12/07 02:23:52;;;;;;;48.47;26.05;;;;;;;1.67;100.00;101672.13;4947740;28;20530;-71
2022/12/07 02:26:50;;;;;;;50.75;24.33;;;;;;;1.69;100.00;101675.63;4948448;28;20498;-71
2022/12/07 02:30:00;;;;;;;42.88;24.10;;;;;;;1.70;100.00;101669.59;4947820;28;20048;-71
2022/12/07 02:32:56;;;;;;;50.58;24.88;;;;;;;1.69;100.00;101672.13;4933569;28;20060;-71
2022/12/07 02:36:01;;;;;;;50.03;25.08;;;;;;;1.67;100.00;101673.84;4949276;28;20051;-71
2022/12/07 02:38:57;;;;;;;50.28;25.45;;;;;;;1.63;100.00;101665.09;4936948;28;20092;-70
2022/12/07 02:41:33;;;;;;;51.60;27.13;;;;;;;1.62;100.00;101678.06;4953178;28;20036;-71
2022/12/07 02:44:08;;;;;;;54.13;26.35;;;;;;;1.64;100.00;101674.66;4954035;28;20048;-71
2022/12/07 02:46:47;;;;;;;48.70;25.10;;;;;;;1.65;100.00;101676.41;4953043;28;21152;-71
2022/12/07 02:49:16;;;;;;;48.55;23.85;;;;;;;1.63;100.00;101664.22;4951911;28;20111;-72
2022/12/07 02:51:46;;;;;;;54.63;26.23;;;;;;;1.62;100.00;101665.97;4953524;28;20067;-71
2022/12/07 02:54:18;;;;;;;49.08;25.25;;;;;;;1.61;100.00;101665.91;4953756;28;20047;-71
2022/12/07 02:56:55;;;;;;;51.47;25.55;;;;;;;1.59;100.00;101670.19;4954656;28;20537;-70
2022/12/07 02:59:56;;;;;;;56.33;26.52;;;;;;;1.53;100.00;101665.75;4953558;28;20046;-70
2022/12/07 03:03:02;;;;;;;50.45;25.73;;;;;;;1.53;100.00;101676.16;4952515;28;20044;-69
2022/12/07 03:06:16;;;;;;;44.88;24.25;;;;;;;1.53;100.00;101669.25;4954547;28;20039;-71
2022/12/07 03:09:21;;;;;;;45.25;23.65;;;;;;;1.51;100.00;101662.28;4946996;28;20803;-72
2022/12/07 03:11:59;;;;;;;47.95;23.58;;;;;;;1.51;100.00;101668.34;4954408;28;20038;-71
2022/12/07 03:14:40;;;;;;;41.35;23.40;;;;;;;1.46;100.00;101667.38;4954314;28;20115;-71
2022/12/07 03:17:19;;;;;;;42.45;22.98;;;;;;;1.45;100.00;101676.03;4953231;28;20527;-71
2022/12/07 03:19:50;;;;;;;42.25;22.85;;;;;;;1.44;100.00;101673.38;4949288;28;20056;-70
2022/12/07 03:22:19;;;;;;;50.83;24.65;;;;;;;1.42;100.00;101675.09;4952886;28;20044;-71
2022/12/07 03:25:04;;;;;;;53.78;25.02;;;;;;;1.43;100.00;101679.41;4955064;28;20103;-71
2022/12/07 03:27:36;;;;;;;;;;;;;;;1.39;100.00;101668.97;4954336;28;20078;-71
2022/12/07 03:30:12;;;;;;;46.88;23.70;;;;;;;1.38;100.00;101666.31;4954350;28;19927;-71
2022/12/07 03:32:49;;;;;;;43.25;21.20;;;;;;;1.39;100.00;101668.97;4952944;28;20051;-71
2022/12/07 03:35:31;;;;;;;47.95;23.27;;;;;;;1.37;100.00;101667.19;4954547;28;20050;-71
2022/12/07 03:38:31;;;;;;;41.58;21.10;;;;;;;1.33;100.00;101663.63;4951480;28;21097;-70
2022/12/07 03:41:11;;;;;;;42.00;21.83;;;;;;;1.31;100.00;101665.34;4953719;28;20537;-71
2022/12/07 03:43:40;;;;;;;44.97;21.33;;;;;;;1.28;100.00;101657.47;4948737;28;20071;-71
2022/12/07 03:46:49;;;;;;;46.70;22.33;;;;;;;1.31;100.00;101661.84;4952399;28;20051;-71
2022/12/07 03:49:30;;;;;;;46.92;22.42;;;;;;;1.33;100.00;101660.16;4950909;28;20044;-72
2022/12/07 03:52:18;;;;;;;43.50;21.98;;;;;;;1.38;100.00;101654.22;4953512;28;20154;-72
2022/12/07 03:55:14;;;;;;;38.88;21.23;;;;;;;1.43;100.00;101654.31;4952509;28;20208;-72
2022/12/07 03:57:47;;;;;;;38.67;21.13;;;;;;;1.44;100.00;101653.47;4951164;28;20553;-72
2022/12/07 04:00:15;;;;;;;39.47;21.10;;;;;;;1.42;100.00;101662.09;4954212;28;20477;-71
2022/12/07 04:02:42;;;;;;;39.55;19.65;;;;;;;1.42;100.00;101665.53;4952705;28;20083;-71
2022/12/07 04:05:11;;;;;;;37.75;19.75;;;;;;;1.46;100.00;101654.38;4953342;28;20044;-71
2022/12/07 04:07:39;;;;;;;37.60;20.48;;;;;;;1.53;100.00;101661.44;4950687;28;20560;-70
2022/12/07 04:10:07;;;;;;;38.15;20.25;;;;;;;1.66;100.00;101659.09;4953684;28;20076;-70
2022/12/07 04:12:34;;;;;;;41.65;20.70;;;;;;;1.73;100.00;101655.78;4953643;28;20044;-70
2022/12/07 04:15:01;;;;;;;37.38;21.38;;;;;;;1.80;100.00;101647.22;4952575;28;20082;-70
2022/12/07 04:17:29;;;;;;;34.50;19.77;;;;;;;1.85;100.00;101644.72;4949475;28;20044;-69
2022/12/07 04:19:56;;;;;;;38.15;19.27;;;;;;;1.89;100.00;101638.72;4952392;28;20071;-70
2022/12/07 04:22:25;;;;;;;33.28;18.48;;;;;;;1.94;100.00;101644.88;4955180;28;20771;-70
2022/12/07 04:24:52;;;;;;;32.75;18.85;;;;;;;1.98;100.00;101641.50;4957375;28;20488;-70
2022/12/07 04:27:19;;;;;;;34.55;18.70;;;;;;;2.04;100.00;101637.25;4957011;28;20041;-70
2022/12/07 04:29:46;;;;;;;34.33;18.35;;;;;;;2.07;100.00;101642.50;4960106;28;20047;-70
2022/12/07 04:32:13;;;;;;;32.85;17.42;;;;;;;2.10;100.00;101642.56;4955221;28;20048;-70
2022/12/07 04:34:41;;;;;;;34.38;17.23;;;;;;;2.12;100.00;101643.47;4953229;28;20852;-70
2022/12/07 04:37:08;;;;;;;30.45;16.45;;;;;;;2.12;100.00;101648.69;4953734;28;20051;-71
2022/12/07 04:39:35;;;;;;;30.92;16.42;;;;;;;2.16;100.00;101634.84;4951941;28;20090;-70
2022/12/07 04:42:03;;;;;;;34.35;15.90;;;;;;;2.20;100.00;101638.38;4952480;28;20040;-71
2022/12/07 04:44:30;;;;;;;28.17;14.13;;;;;;;2.23;100.00;101634.13;4959260;28;20086;-70
2022/12/07 04:46:57;;;;;;;27.27;14.63;;;;;;;2.25;100.00;101635.00;4952670;28;20528;-70
2022/12/07 04:49:25;;;;;;;30.13;14.05;;;;;;;2.26;100.00;101628.97;4956586;28;20050;-70
2022/12/07 04:51:52;;;;;;;27.55;14.75;;;;;;;2.26;100.00;101631.56;4967434;28;20520;-70
2022/12/07 04:54:19;;;;;;;27.90;14.10;;;;;;;2.25;100.00;101626.34;4956154;28;20513;-70
2022/12/07 04:56:46;;;;;;;27.15;13.82;;;;;;;2.24;100.00;101627.19;4953814;28;20044;-71
2022/12/07 04:59:16;;;;;;;29.42;14.27;;;;;;;2.23;100.00;101626.31;4952713;28;20056;-71
2022/12/07 05:01:44;;;;;;;28.83;14.23;;;;;;;2.25;100.00;101628.94;4958402;28;20103;-71
2022/12/07 05:04:11;;;;;;;24.77;13.80;;;;;;;2.24;100.00;101624.59;4951801;28;20040;-70
2022/12/07 05:06:38;;;;;;;24.42;13.20;;;;;;;2.23;100.00;101622.84;4953542;28;20047;-70
2022/12/07 05:09:05;;;;;;;25.27;13.13;;;;;;;2.21;100.00;101627.13;4952398;28;20058;-70
2022/12/07 05:11:38;;;;;;;27.75;13.00;;;;;;;2.22;100.00;101626.28;4952655;28;20040;-69
2022/12/07 05:14:20;;;;;;;27.73;13.73;;;;;;;2.24;100.00;101627.19;4951908;28;20110;-69
2022/12/07 05:16:51;;;;;;;26.35;13.10;;;;;;;2.26;100.00;101633.31;4952218;28;20135;-67
2022/12/07 05:19:19;;;;;;;25.95;12.50;;;;;;;2.27;100.00;101628.13;4950638;28;20047;-70
2022/12/07 05:21:46;;;;;;;23.20;12.45;;;;;;;2.28;100.00;101627.25;4952553;28;20059;-70
2022/12/07 05:24:16;;;;;;;25.75;12.32;;;;;;;2.29;100.00;101625.56;4952558;28;20047;-70
2022/12/07 05:26:45;;;;;;;22.98;11.88;;;;;;;2.27;100.00;101627.25;4951235;28;20636;-69
2022/12/07 05:29:16;;;;;;;22.20;11.20;;;;;;;2.26;100.00;101633.31;4949247;28;20040;-70
2022/12/07 05:31:44;;;;;;;20.15;10.93;;;;;;;2.21;100.00;101625.41;4947047;28;20082;-70
2022/12/07 05:34:12;;;;;;;26.17;11.60;;;;;;;2.16;100.00;101630.53;4952596;28;20115;-69
2022/12/07 05:36:40;;;;;;;23.10;11.18;;;;;;;2.09;100.00;101638.22;4952532;28;20087;-70
2022/12/07 05:39:09;;;;;;;25.13;11.55;;;;;;;2.03;100.00;101631.19;4943660;28;20435;-69
2022/12/07 05:44:22;;;;;;;20.05;11.27;;;;;;;1.97;100.00;101634.53;4946275;28;20055;-69
2022/12/07 05:46:50;;;;;;;23.17;11.38;;;;;;;2.00;100.00;101636.31;4950617;28;20501;-69
2022/12/07 05:49:17;;;;;;;26.65;11.80;;;;;;;2.06;100.00;101632.94;4932773;28;20099;-69
2022/12/07 05:51:44;;;;;;;20.92;11.30;;;;;;;2.10;100.00;101629.56;4952390;28;20094;-69
2022/12/07 05:54:11;;;;;;;21.80;11.73;;;;;;;2.09;100.00;101631.28;4951686;28;20059;-69
2022/12/07 05:56:38;;;;;;;21.95;10.85;;;;;;;2.05;100.00;101626.00;4952135;28;20566;-69
2022/12/07 05:59:24;;;;;;;19.73;10.75;;;;;;;2.01;100.00;101627.66;4943581;28;20184;-69
2022/12/07 06:01:59;;;;;;;20.67;10.52;;;;;;;1.95;100.00;101627.56;4950509;28;20830;-69
2022/12/07 06:04:31;;;;;;;18.98;10.60;;;;;;;1.85;100.00;101619.59;4947405;28;20039;-69
2022/12/07 06:06:58;;;;;;;17.70;10.05;;;;;;;1.77;100.00;101620.28;4946289;28;20052;-69
2022/12/07 06:09:27;;;;;;;21.48;10.27;;;;;;;1.71;100.00;101628.84;4949526;28;20119;-69
2022/12/07 06:14:43;;;;;;;20.73;9.88;;;;;;;1.67;100.00;101621.88;4952389;28;20043;-70
2022/12/07 06:17:12;;;;;;;20.98;10.20;;;;;;;1.67;100.00;101619.25;4949681;28;21035;-70
2022/12/07 06:19:41;;;;;;;23.67;9.60;;;;;;;1.64;100.00;101621.78;4951744;28;20135;-70
2022/12/07 06:22:11;;;;;;;20.33;9.35;;;;;;;1.61;100.00;101627.81;4931602;28;20052;-71
2022/12/07 06:24:40;;;;;;;21.42;8.93;;;;;;;1.57;100.00;101625.13;4932594;29;20044;-71
2022/12/07 06:27:08;;;;;;;20.08;9.15;;;;;;;1.57;100.00;101635.53;4932275;29;20051;-71
2022/12/07 06:29:35;;;;;;;16.80;8.75;;;;;;;1.55;100.00;101632.88;4931252;29;20044;-71
2022/12/07 06:32:03;;;;;;;21.70;8.73;;;;;;;1.55;100.00;101628.56;4931026;29;20048;-71
2022/12/07 06:34:31;;;;;;;17.80;9.07;;;;;;;1.57;100.00;101631.19;4929162;29;20064;-71
2022/12/07 06:36:58;;;;;;;16.15;9.15;;;;;;;1.60;100.00;101625.16;4918128;29;20588;-72
2022/12/07 06:39:28;;;;;;;15.90;9.02;;;;;;;1.63;100.00;101635.63;4930440;29;20100;-71
2022/12/07 06:41:56;;;;;;;21.52;9.73;;;;;;;1.65;100.00;101633.94;4930167;29;20124;-71
2022/12/07 06:44:24;;;;;;;19.77;9.77;;;;;;;1.63;100.00;101638.25;4929647;29;20048;-71
2022/12/07 06:46:53;;;;;;;23.20;10.00;;;;;;;1.60;100.00;101638.16;4918342;29;20047;-71
2022/12/07 06:49:40;;;;;;;21.33;10.05;;;;;;;1.53;100.00;101634.56;4930995;29;20040;-71
2022/12/07 06:52:07;;;;;;;20.10;10.32;;;;;;;1.51;100.00;101642.34;4913757;29;20052;-71
2022/12/07 06:54:34;;;;;;;23.58;10.23;;;;;;;1.49;100.00;101635.38;4932347;29;20068;-71
2022/12/07 06:57:01;;;;;;;17.30;10.30;;;;;;;1.44;100.00;101635.28;4931464;29;20049;-70
2022/12/07 06:59:28;;;;;;;22.25;10.95;;;;;;;1.43;100.00;101638.72;4925396;29;20048;-70
2022/12/07 07:01:55;;;;;;;24.83;11.13;;;;;;;1.41;100.00;101637.81;4929332;29;20088;-70
2022/12/07 07:04:23;;;;;;;19.33;10.80;;;;;;;1.44;100.00;101630.09;4925713;29;20112;-70
2022/12/07 07:06:50;;;;;;;24.02;10.85;;;;;;;1.47;100.00;101632.75;4924169;29;20044;-70
2022/12/07 07:09:26;;;;;;;22.33;11.18;;;;;;;1.49;100.00;101625.84;4930779;29;20048;-70
2022/12/07 07:11:55;;;;;;;26.02;11.55;;;;;;;1.50;100.00;101629.31;4927534;29;20100;-70
2022/12/07 07:14:22;;;;;;;19.08;10.90;;;;;;;1.48;100.00;101625.81;4932632;28;20308;-70
2022/12/07 07:16:49;;;;;;;28.73;11.20;;;;;;;1.46;100.00;101633.59;4932767;29;20103;-70
2022/12/07 07:19:16;;;;;;;24.42;11.43;;;;;;;1.48;100.00;101636.22;4929507;29;20099;-71
2022/12/07 07:21:43;;;;;;;28.10;10.68;;;;;;;1.51;100.00;101637.16;4947290;28;20079;-70
2022/12/07 07:24:10;;;;;;;21.63;11.45;;;;;;;1.56;100.00;101645.03;4951110;28;20035;-71
2022/12/07 07:26:37;;;;;;;22.40;11.73;;;;;;;1.56;100.00;101647.63;4953128;28;20114;-70
2022/12/07 07:29:04;;;;;;;23.77;11.48;;;;;;;1.60;100.00;101651.16;4955139;28;20589;-71
2022/12/07 07:31:31;;;;;;;24.17;12.80;;;;;;;1.63;100.00;101646.91;4955030;28;20528;-70
2022/12/07 07:34:00;;;;;;;28.65;12.55;;;;;;;1.67;100.00;101650.47;4954628;28;20040;-70
2022/12/07 07:36:27;;;;;;;28.05;15.85;;;;;;;1.69;100.00;101651.34;4954225;28;20043;-70
2022/12/07 07:38:54;;;;;;;26.58;12.55;;;;;;;1.69;100.00;101653.94;4955118;28;20561;-71
2022/12/07 07:41:20;;;;;;;22.02;11.18;;;;;;;1.69;100.00;101659.13;4954913;28;20048;-71
2022/12/07 07:43:47;;;;;;;18.00;10.98;;;;;;;1.68;100.00;101653.06;4954541;28;20616;-70
2022/12/07 07:46:15;;;;;;;19.48;11.13;;;;;;;1.71;100.00;101652.25;4955030;28;20051;-70
2022/12/07 07:48:42;;;;;;;21.27;11.43;;;;;;;1.77;100.00;101655.00;4948162;28;21007;-71
2022/12/07 07:51:10;;;;;;;26.52;11.02;;;;;;;1.83;100.00;101660.28;4953875;28;20043;-70
2022/12/07 07:53:37;;;;;;;20.23;10.20;;;;;;;1.90;100.00;101652.59;4954465;28;20103;-70
2022/12/07 07:56:05;;;;;;;19.40;9.88;;;;;;;1.92;100.00;101649.19;4954193;28;20052;-70
2022/12/07 07:58:32;;;;;;;20.42;10.77;;;;;;;1.92;100.00;101643.09;4954716;28;20047;-71
2022/12/07 08:01:06;;;;;;;21.75;11.43;;;;;;;1.91;100.00;101647.44;4954738;28;20054;-70
2022/12/07 08:03:35;;;;;;;20.80;11.00;;;;;;;1.91;100.00;101649.16;4954508;28;20135;-70
2022/12/07 08:06:03;;;;;;;25.35;10.40;;;;;;;1.93;100.00;101652.66;4954208;28;20047;-71
2022/12/07 08:08:31;;;;;;;21.45;9.63;;;;;;;1.96;100.00;101647.53;4953338;28;20043;-70
2022/12/07 08:11:00;;;;;;;20.10;10.23;;;;;;;2.02;100.00;101645.03;4954233;28;20054;-70
2022/12/07 08:13:27;;;;;;;19.85;9.40;;;;;;;2.06;100.00;101646.84;4954665;28;20036;-70
2022/12/07 08:15:58;;;;;;;19.85;9.75;;;;;;;2.11;100.00;101653.00;4954318;28;20601;-70
2022/12/07 08:18:25;;;;;;;19.27;8.82;;;;;;;2.16;100.00;101646.16;4955212;28;20529;-70
2022/12/07 08:20:59;;;;;;;20.00;9.20;;;;;;;2.21;100.00;101651.44;4955203;28;20072;-70
2022/12/07 08:23:27;;;;;;;21.38;8.57;;;;;;;2.23;100.00;101654.94;4955791;28;20043;-71
2022/12/07 08:26:09;;;;;;;19.38;8.15;;;;;;;2.21;100.00;101650.53;4954305;28;20050;-70
2022/12/07 08:28:37;;;;;;;18.17;9.02;;;;;;;2.20;100.00;101651.41;4955447;28;20040;-70
2022/12/07 08:31:13;;;;;;;15.70;8.35;;;;;;;2.20;100.00;101657.50;4955807;28;20047;-71
2022/12/07 08:33:41;;;;;;;14.70;7.95;;;;;;;2.17;100.00;101654.81;4955385;28;20044;-71
2022/12/07 08:36:11;;;;;;;25.38;8.75;;;;;;;2.15;100.00;101656.50;4955630;28;20044;-71
2022/12/07 08:38:40;;;;;;;15.73;8.40;;;;;;;2.12;100.00;101662.53;4955634;28;20111;-70
2022/12/07 08:41:22;;;;;;;16.77;8.40;;;;;;;2.09;100.00;101662.47;4954901;28;20055;-70
2022/12/07 08:43:51;;;;;;;19.58;8.65;;;;;;;2.07;100.00;101666.81;4955740;28;20197;-70
2022/12/07 08:46:34;;;;;;;18.58;8.38;;;;;;;2.07;100.00;101666.81;4955465;28;20126;-71
2022/12/07 08:49:12;;;;;;;15.65;8.68;;;;;;;2.07;100.00;101672.00;4955324;28;20144;-70
2022/12/07 08:51:41;;;;;;;21.40;8.13;;;;;;;2.07;100.00;101669.41;4954556;28;20062;-70
2022/12/07 08:54:17;;;;;;;17.13;8.80;;;;;;;2.14;100.00;101663.47;4937069;28;20051;-70
2022/12/07 08:56:47;;;;;;;18.65;8.43;;;;;;;2.19;100.00;101662.69;4954174;28;20859;-70
2022/12/07 08:59:21;;;;;;;19.55;8.90;;;;;;;2.27;100.00;101669.75;4954436;28;20043;-70
2022/12/07 09:01:48;;;;;;;18.98;8.85;;;;;;;2.33;100.00;101662.06;4953191;28;20068;-70
2022/12/07 09:04:15;;;;;;;14.32;8.18;;;;;;;2.41;100.00;101658.72;4953999;28;20115;-70
2022/12/07 09:06:43;;;;;;;14.20;7.70;;;;;;;2.49;100.00;101663.16;4954390;28;20048;-71
2022/12/07 09:09:13;;;;;;;16.77;7.95;;;;;;;2.57;100.00;101665.03;4953531;28;20107;-70
2022/12/07 09:11:40;;;;;;;15.48;8.10;;;;;;;2.59;100.00;101668.56;4952725;28;20078;-71
2022/12/07 09:14:08;;;;;;;21.17;8.73;;;;;;;2.68;100.00;101662.59;4952798;28;20056;-71
2022/12/07 09:16:35;;;;;;;16.33;8.48;;;;;;;2.81;100.00;101659.34;4953554;28;20051;-71
2022/12/07 09:19:04;;;;;;;18.25;8.35;;;;;;;2.99;100.00;101665.66;4953977;28;20040;-71
2022/12/07 09:21:31;;;;;;;16.20;8.02;;;;;;;3.17;100.00;101665.91;4953437;28;20063;-71
2022/12/07 09:24:04;;;;;;;16.17;7.63;;;;;;;3.30;100.00;101666.97;4952715;28;20083;-71
2022/12/07 09:26:31;;;;;;;13.77;8.25;;;;;;;3.32;100.00;101665.22;4953107;28;20518;-70
2022/12/07 09:28:58;;;;;;;19.65;8.32;;;;;;;3.33;100.00;101669.59;4953352;28;20043;-70
2022/12/07 09:31:26;;;;;;;17.00;8.10;;;;;;;3.36;100.00;101671.34;4953143;28;20047;-71
2022/12/07 09:33:58;;;;;;;14.95;7.75;;;;;;;3.38;100.00;101667.94;4952778;28;20119;-70
2022/12/07 09:36:28;;;;;;;17.77;7.57;;;;;;;3.44;100.00;101676.69;4952934;28;20048;-71
2022/12/07 09:38:55;;;;;;;16.00;8.02;;;;;;;3.51;100.00;101673.31;4952629;28;20490;-71
2022/12/07 09:41:26;;;;;;;14.55;7.68;;;;;;;3.60;100.00;101670.81;4953514;28;20537;-71
2022/12/07 09:44:04;;;;;;;11.90;7.40;;;;;;;3.72;100.00;101672.69;4953355;28;20536;-70
2022/12/07 09:46:39;;;;;;;13.30;7.70;;;;;;;3.82;100.00;101663.19;4952524;28;20039;-71
2022/12/07 09:49:20;;;;;;;14.00;6.68;;;;;;;3.86;100.00;101659.78;4953185;28;20039;-71
2022/12/07 09:52:02;;;;;;;13.70;7.57;;;;;;;3.87;100.00;101656.31;4953306;28;20107;-71
2022/12/07 09:54:31;;;;;;;13.38;7.00;;;;;;;3.95;100.00;101664.22;4952028;28;20043;-71
2022/12/07 09:56:58;;;;;;;18.65;6.75;;;;;;;4.06;100.00;101664.31;4952817;28;20051;-70
2022/12/07 09:59:26;;;;;;;15.18;6.60;;;;;;;4.22;100.00;101655.81;4950593;28;20051;-70
2022/12/07 10:02:38;;;;;;;14.55;9.05;;;;;;;4.42;100.00;101653.34;4949437;28;20059;-70
2022/12/07 10:05:12;;;;;;;15.75;7.38;;;;;;;4.55;100.00;101649.09;4952872;28;20053;-70
2022/12/07 10:07:45;;;;;;;11.02;6.32;;;;;;;4.60;100.00;101652.63;4953173;28;20071;-70
2022/12/07 10:10:39;;;;;;;35.03;21.50;;;;;;;4.65;100.00;101656.13;4953427;28;20039;-70
2022/12/07 10:13:09;;;;;;;13.38;6.35;;;;;;;4.65;100.00;101648.28;4952787;28;20054;-70
2022/12/07 10:15:57;;;;;;;15.05;6.20;;;;;;;4.64;100.00;101646.53;4952404;28;20043;-70
2022/12/07 10:18:38;;;;;;;12.23;6.18;;;;;;;4.64;100.00;101635.22;4947472;28;20513;-70
2022/12/07 10:21:07;;;;;;;13.13;6.25;;;;;;;4.63;100.00;101628.25;4952041;28;20826;-70
2022/12/07 10:23:38;;;;;;;12.73;5.85;;;;;;;4.65;99.93;101632.63;4952851;28;20035;-70
2022/12/07 10:26:36;;;;;;;14.23;5.18;;;;;;;4.76;98.94;101629.22;4952079;28;20055;-70
2022/12/07 10:29:31;;;;;;;9.07;4.90;;;;;;;4.87;98.85;101627.53;4932245;28;20466;-70
2022/12/07 10:32:32;;;;;;;12.43;5.20;;;;;;;4.95;98.34;101627.59;4951942;28;20058;-70
2022/12/07 10:35:19;;;;;;;9.35;4.88;;;;;;;5.01;97.71;101617.16;4942559;28;20059;-70
2022/12/07 10:37:50;;;;;;;10.95;5.10;;;;;;;5.02;98.22;101611.06;4952277;28;20048;-70
2022/12/07 10:40:28;;;;;;;12.60;6.70;;;;;;;5.07;98.46;101606.75;4951699;28;20040;-70
2022/12/07 10:43:11;;;;;;;7.90;4.68;;;;;;;5.11;98.20;101621.56;4949334;28;20133;-70
2022/12/07 10:45:51;;;;;;;10.25;5.00;;;;;;;5.19;98.11;101610.31;4951899;28;20043;-70
2022/12/07 10:48:55;;;;;;;9.73;4.25;;;;;;;5.30;98.25;101605.97;4943334;28;20147;-70
2022/12/07 10:52:04;;;;;;;7.55;3.72;;;;;;;5.46;97.29;101603.41;4938771;28;20057;-70
2022/12/07 10:55:12;;;;;;;6.90;3.80;;;;;;;5.56;96.13;101608.66;4933127;29;20075;-71
2022/12/07 10:58:19;;;;;;;7.35;3.40;;;;;;;5.63;94.45;101600.84;4937543;28;20521;-70
2022/12/07 11:01:21;;;;;;;8.80;3.58;;;;;;;5.69;93.33;101593.00;4925654;28;20068;-70
2022/12/07 11:03:51;;;;;;;12.48;3.33;;;;;;;5.78;93.80;101587.78;4949889;28;20079;-70
2022/12/07 11:06:27;;;;;;;5.93;2.55;;;;;;;5.83;91.62;101590.41;4955366;28;20064;-71
2022/12/07 11:09:45;;;;;;;5.43;2.15;;;;;;;5.90;90.69;101593.03;4954059;28;20047;-71
2022/12/07 11:12:44;;;;;;;5.70;2.22;;;;;;;5.93;89.32;101580.84;4954958;28;20240;-71
2022/12/07 11:15:53;;;;;;;7.22;2.22;;;;;;;5.98;89.48;101576.47;4938358;28;20651;-70
2022/12/07 11:18:43;;;;;;;5.18;2.00;;;;;;;6.03;88.65;101574.78;4953940;28;20088;-71
2022/12/07 11:21:30;;;;;;;9.00;2.60;;;;;;;6.09;88.33;101566.91;4946608;28;20126;-71
2022/12/07 11:24:14;;;;;;;5.68;1.70;;;;;;;6.16;87.48;101567.78;4955423;28;20048;-71
2022/12/07 11:26:56;;;;;;;8.80;2.25;;;;;;;6.20;87.15;101572.16;4954147;28;20039;-70
2022/12/07 11:29:46;;;;;;;7.13;2.00;;;;;;;6.21;86.82;101568.63;4951517;28;20054;-70
2022/12/07 11:32:35;;;;;;;5.60;1.83;;;;;;;6.19;87.54;101562.56;4954404;28;20043;-70
2022/12/07 11:35:17;;;;;;;7.18;2.28;;;;;;;6.16;86.17;101559.94;4955028;28;20043;-70
2022/12/07 11:37:47;;;;;;;8.43;2.20;;;;;;;6.14;87.61;101553.81;4954725;28;20068;-70
2022/12/07 11:40:25;;;;;;;10.70;2.55;;;;;;;6.13;85.80;101550.34;4939724;28;20803;-70
2022/12/07 11:43:17;;;;;;;9.95;1.92;;;;;;;6.12;86.79;101556.44;4955070;28;20043;-70
2022/12/07 11:45:58;;;;;;;10.48;2.38;;;;;;;6.15;88.11;101547.72;4955142;28;20126;-70
2022/12/07 11:48:50;;;;;;;6.78;1.80;;;;;;;6.16;86.05;101546.84;4948199;28;20047;-70
2022/12/07 11:51:22;;;;;;;8.68;2.17;;;;;;;6.10;86.16;101544.22;4954895;28;20048;-70
2022/12/07 11:53:57;;;;;;;5.80;1.88;;;;;;;6.09;86.63;101545.09;4954954;28;20058;-71